sensor_id;sensor_type;location;lat;lon;timestamp;P1;durP1;ratioP1;P2;durP2;ratioP2
77287;SDS011;66345;42.694;23.346;2023-03-08T00:00:03;12.97;;;5.67;;
77287;SDS011;66345;42.694;23.346;2023-03-08T00:02:30;13.93;;;5.80;;
77287;SDS011;66345;42.694;23.346;2023-03-08T00:04:56;12.00;;;5.07;;
77287;SDS011;66345;42.694;23.346;2023-03-08T00:07:22;12.32;;;4.93;;
77287;SDS011;66345;42.694;23.346;2023-03-08T00:09:49;15.60;;;5.40;;
77287;SDS011;66345;42.694;23.346;2023-03-08T00:12:14;9.57;;;4.40;;
77287;SDS011;66345;42.694;23.346;2023-03-08T00:14:43;11.52;;;5.00;;
77287;SDS011;66345;42.694;23.346;2023-03-08T00:17:09;10.17;;;4.47;;
77287;SDS011;66345;42.694;23.346;2023-03-08T00:19:34;14.07;;;4.95;;
77287;SDS011;66345;42.694;23.346;2023-03-08T00:22:00;11.40;;;4.80;;
77287;SDS011;66345;42.694;23.346;2023-03-08T00:24:25;11.13;;;4.53;;
77287;SDS011;66345;42.694;23.346;2023-03-08T00:26:51;9.45;;;4.45;;
77287;SDS011;66345;42.694;23.346;2023-03-08T00:29:16;11.57;;;4.70;;
77287;SDS011;66345;42.694;23.346;2023-03-08T00:31:41;12.03;;;4.73;;
77287;SDS011;66345;42.694;23.346;2023-03-08T00:34:07;8.23;;;4.50;;
77287;SDS011;66345;42.694;23.346;2023-03-08T00:36:32;8.07;;;4.53;;
77287;SDS011;66345;42.694;23.346;2023-03-08T00:38:58;8.82;;;4.47;;
77287;SDS011;66345;42.694;23.346;2023-03-08T00:41:23;10.53;;;4.57;;
77287;SDS011;66345;42.694;23.346;2023-03-08T00:43:48;14.13;;;4.37;;
77287;SDS011;66345;42.694;23.346;2023-03-08T00:46:15;12.52;;;4.32;;
77287;SDS011;66345;42.694;23.346;2023-03-08T00:48:41;10.80;;;4.33;;
77287;SDS011;66345;42.694;23.346;2023-03-08T00:51:06;11.00;;;4.13;;
77287;SDS011;66345;42.694;23.346;2023-03-08T00:53:35;8.80;;;4.20;;
77287;SDS011;66345;42.694;23.346;2023-03-08T00:56:01;10.40;;;4.37;;
77287;SDS011;66345;42.694;23.346;2023-03-08T00:58:27;11.57;;;4.00;;
77287;SDS011;66345;42.694;23.346;2023-03-08T01:00:55;8.85;;;4.30;;
77287;SDS011;66345;42.694;23.346;2023-03-08T01:03:21;9.67;;;3.90;;
77287;SDS011;66345;42.694;23.346;2023-03-08T01:05:48;9.25;;;3.95;;
77287;SDS011;66345;42.694;23.346;2023-03-08T01:08:16;9.20;;;4.13;;
77287;SDS011;66345;42.694;23.346;2023-03-08T01:10:52;9.32;;;3.75;;
77287;SDS011;66345;42.694;23.346;2023-03-08T01:13:21;12.40;;;4.80;;
77287;SDS011;66345;42.694;23.346;2023-03-08T01:15:49;10.77;;;3.78;;
77287;SDS011;66345;42.694;23.346;2023-03-08T01:18:14;11.07;;;4.25;;
77287;SDS011;66345;42.694;23.346;2023-03-08T01:20:40;10.90;;;4.28;;
77287;SDS011;66345;42.694;23.346;2023-03-08T01:23:06;12.25;;;4.50;;
77287;SDS011;66345;42.694;23.346;2023-03-08T01:25:31;9.43;;;4.40;;
77287;SDS011;66345;42.694;23.346;2023-03-08T01:27:56;10.80;;;4.30;;
77287;SDS011;66345;42.694;23.346;2023-03-08T01:30:22;10.40;;;4.60;;
77287;SDS011;66345;42.694;23.346;2023-03-08T01:32:49;12.65;;;4.68;;
77287;SDS011;66345;42.694;23.346;2023-03-08T01:35:14;13.53;;;5.83;;
77287;SDS011;66345;42.694;23.346;2023-03-08T01:37:40;12.40;;;5.03;;
77287;SDS011;66345;42.694;23.346;2023-03-08T01:40:05;14.70;;;7.00;;
77287;SDS011;66345;42.694;23.346;2023-03-08T01:42:31;12.88;;;5.55;;
77287;SDS011;66345;42.694;23.346;2023-03-08T01:47:31;11.13;;;5.20;;
77287;SDS011;66345;42.694;23.346;2023-03-08T01:50:03;10.50;;;5.50;;
77287;SDS011;66345;42.694;23.346;2023-03-08T01:52:33;12.57;;;5.70;;
77287;SDS011;66345;42.694;23.346;2023-03-08T01:55:05;16.50;;;6.13;;
77287;SDS011;66345;42.694;23.346;2023-03-08T01:57:34;14.50;;;6.10;;
77287;SDS011;66345;42.694;23.346;2023-03-08T02:00:09;10.73;;;5.85;;
77287;SDS011;66345;42.694;23.346;2023-03-08T02:02:48;15.43;;;6.93;;
77287;SDS011;66345;42.694;23.346;2023-03-08T02:05:17;15.50;;;6.70;;
77287;SDS011;66345;42.694;23.346;2023-03-08T02:07:43;14.82;;;6.93;;
77287;SDS011;66345;42.694;23.346;2023-03-08T02:10:10;13.02;;;6.28;;
77287;SDS011;66345;42.694;23.346;2023-03-08T02:12:36;14.68;;;7.05;;
77287;SDS011;66345;42.694;23.346;2023-03-08T02:15:04;13.73;;;6.38;;
77287;SDS011;66345;42.694;23.346;2023-03-08T02:17:31;14.20;;;6.47;;
77287;SDS011;66345;42.694;23.346;2023-03-08T02:20:20;14.32;;;7.15;;
77287;SDS011;66345;42.694;23.346;2023-03-08T02:22:50;16.13;;;7.43;;
77287;SDS011;66345;42.694;23.346;2023-03-08T02:25:26;13.23;;;6.93;;
77287;SDS011;66345;42.694;23.346;2023-03-08T02:27:52;14.73;;;6.50;;
77287;SDS011;66345;42.694;23.346;2023-03-08T02:30:22;21.50;;;7.67;;
77287;SDS011;66345;42.694;23.346;2023-03-08T02:32:50;15.68;;;7.45;;
77287;SDS011;66345;42.694;23.346;2023-03-08T02:35:16;18.07;;;8.10;;
77287;SDS011;66345;42.694;23.346;2023-03-08T02:37:41;17.50;;;8.30;;
77287;SDS011;66345;42.694;23.346;2023-03-08T02:40:07;19.60;;;8.93;;
77287;SDS011;66345;42.694;23.346;2023-03-08T02:42:34;19.00;;;8.63;;
77287;SDS011;66345;42.694;23.346;2023-03-08T02:44:59;17.80;;;8.40;;
77287;SDS011;66345;42.694;23.346;2023-03-08T02:47:24;21.77;;;9.47;;
77287;SDS011;66345;42.694;23.346;2023-03-08T02:49:50;19.05;;;8.50;;
77287;SDS011;66345;42.694;23.346;2023-03-08T02:52:16;16.47;;;8.17;;
77287;SDS011;66345;42.694;23.346;2023-03-08T02:54:41;16.23;;;8.40;;
77287;SDS011;66345;42.694;23.346;2023-03-08T02:57:06;21.83;;;8.90;;
77287;SDS011;66345;42.694;23.346;2023-03-08T02:59:32;19.23;;;9.87;;
77287;SDS011;66345;42.694;23.346;2023-03-08T03:01:57;20.57;;;8.87;;
77287;SDS011;66345;42.694;23.346;2023-03-08T03:04:23;21.95;;;9.18;;
77287;SDS011;66345;42.694;23.346;2023-03-08T03:06:49;18.43;;;9.00;;
77287;SDS011;66345;42.694;23.346;2023-03-08T03:09:14;20.47;;;9.37;;
77287;SDS011;66345;42.694;23.346;2023-03-08T03:11:40;22.98;;;9.02;;
77287;SDS011;66345;42.694;23.346;2023-03-08T03:14:05;19.13;;;8.73;;
77287;SDS011;66345;42.694;23.346;2023-03-08T03:16:31;17.80;;;8.67;;
77287;SDS011;66345;42.694;23.346;2023-03-08T03:18:57;18.08;;;7.88;;
77287;SDS011;66345;42.694;23.346;2023-03-08T03:21:23;16.50;;;8.30;;
77287;SDS011;66345;42.694;23.346;2023-03-08T03:23:49;16.90;;;7.03;;
77287;SDS011;66345;42.694;23.346;2023-03-08T03:26:19;15.55;;;7.57;;
77287;SDS011;66345;42.694;23.346;2023-03-08T03:28:47;14.30;;;6.95;;
77287;SDS011;66345;42.694;23.346;2023-03-08T03:31:14;13.90;;;6.50;;
77287;SDS011;66345;42.694;23.346;2023-03-08T03:33:41;17.65;;;7.50;;
77287;SDS011;66345;42.694;23.346;2023-03-08T03:36:09;16.17;;;7.00;;
77287;SDS011;66345;42.694;23.346;2023-03-08T03:38:36;16.05;;;6.97;;
77287;SDS011;66345;42.694;23.346;2023-03-08T03:41:05;13.77;;;6.43;;
77287;SDS011;66345;42.694;23.346;2023-03-08T03:43:33;16.33;;;6.07;;
77287;SDS011;66345;42.694;23.346;2023-03-08T03:46:00;14.50;;;6.50;;
77287;SDS011;66345;42.694;23.346;2023-03-08T03:48:27;15.02;;;5.93;;
77287;SDS011;66345;42.694;23.346;2023-03-08T03:50:57;15.73;;;6.47;;
77287;SDS011;66345;42.694;23.346;2023-03-08T03:53:27;12.55;;;5.47;;
77287;SDS011;66345;42.694;23.346;2023-03-08T03:55:54;14.10;;;6.20;;
77287;SDS011;66345;42.694;23.346;2023-03-08T03:58:20;12.37;;;5.93;;
77287;SDS011;66345;42.694;23.346;2023-03-08T04:00:45;14.18;;;5.70;;
77287;SDS011;66345;42.694;23.346;2023-03-08T04:03:11;11.13;;;5.40;;
77287;SDS011;66345;42.694;23.346;2023-03-08T04:05:36;13.23;;;5.80;;
77287;SDS011;66345;42.694;23.346;2023-03-08T04:08:03;14.48;;;5.65;;
77287;SDS011;66345;42.694;23.346;2023-03-08T04:10:30;12.68;;;5.85;;
77287;SDS011;66345;42.694;23.346;2023-03-08T04:12:55;12.17;;;5.10;;
77287;SDS011;66345;42.694;23.346;2023-03-08T04:15:21;14.30;;;5.53;;
77287;SDS011;66345;42.694;23.346;2023-03-08T04:17:46;13.40;;;5.90;;
77287;SDS011;66345;42.694;23.346;2023-03-08T04:20:11;14.20;;;5.75;;
77287;SDS011;66345;42.694;23.346;2023-03-08T04:22:38;9.03;;;4.57;;
77287;SDS011;66345;42.694;23.346;2023-03-08T04:25:04;11.48;;;4.95;;
77287;SDS011;66345;42.694;23.346;2023-03-08T04:27:30;13.17;;;4.50;;
77287;SDS011;66345;42.694;23.346;2023-03-08T04:29:55;13.07;;;5.00;;
77287;SDS011;66345;42.694;23.346;2023-03-08T04:32:20;10.37;;;4.53;;
77287;SDS011;66345;42.694;23.346;2023-03-08T04:34:46;14.17;;;4.80;;
77287;SDS011;66345;42.694;23.346;2023-03-08T04:37:11;12.13;;;4.53;;
77287;SDS011;66345;42.694;23.346;2023-03-08T04:39:37;9.35;;;4.15;;
77287;SDS011;66345;42.694;23.346;2023-03-08T04:42:03;10.93;;;4.53;;
77287;SDS011;66345;42.694;23.346;2023-03-08T04:44:28;12.43;;;5.03;;
77287;SDS011;66345;42.694;23.346;2023-03-08T04:46:54;10.40;;;4.38;;
77287;SDS011;66345;42.694;23.346;2023-03-08T04:49:19;11.63;;;5.10;;
77287;SDS011;66345;42.694;23.346;2023-03-08T04:51:45;14.68;;;5.40;;
77287;SDS011;66345;42.694;23.346;2023-03-08T04:54:10;13.60;;;4.77;;
77287;SDS011;66345;42.694;23.346;2023-03-08T04:56:37;15.77;;;5.57;;
77287;SDS011;66345;42.694;23.346;2023-03-08T04:59:02;22.05;;;9.93;;
77287;SDS011;66345;42.694;23.346;2023-03-08T05:01:27;26.03;;;9.70;;
77287;SDS011;66345;42.694;23.346;2023-03-08T05:03:53;25.80;;;11.23;;
77287;SDS011;66345;42.694;23.346;2023-03-08T05:06:19;29.58;;;13.63;;
77287;SDS011;66345;42.694;23.346;2023-03-08T05:08:47;33.53;;;14.13;;
77287;SDS011;66345;42.694;23.346;2023-03-08T05:11:17;30.83;;;12.93;;
77287;SDS011;66345;42.694;23.346;2023-03-08T05:13:45;27.38;;;11.73;;
77287;SDS011;66345;42.694;23.346;2023-03-08T05:16:11;23.77;;;11.73;;
77287;SDS011;66345;42.694;23.346;2023-03-08T05:18:36;23.03;;;10.53;;
77287;SDS011;66345;42.694;23.346;2023-03-08T05:21:03;23.33;;;10.27;;
77287;SDS011;66345;42.694;23.346;2023-03-08T05:23:30;18.90;;;9.50;;
77287;SDS011;66345;42.694;23.346;2023-03-08T05:25:57;21.25;;;9.77;;
77287;SDS011;66345;42.694;23.346;2023-03-08T05:28:24;21.20;;;10.48;;
77287;SDS011;66345;42.694;23.346;2023-03-08T05:33:30;22.73;;;10.02;;
77287;SDS011;66345;42.694;23.346;2023-03-08T05:35:57;23.73;;;9.80;;
77287;SDS011;66345;42.694;23.346;2023-03-08T05:38:22;17.63;;;8.88;;
77287;SDS011;66345;42.694;23.346;2023-03-08T05:40:48;22.37;;;8.90;;
77287;SDS011;66345;42.694;23.346;2023-03-08T05:43:15;23.17;;;11.52;;
77287;SDS011;66345;42.694;23.346;2023-03-08T05:45:41;21.55;;;10.30;;
77287;SDS011;66345;42.694;23.346;2023-03-08T05:48:07;29.43;;;10.40;;
77287;SDS011;66345;42.694;23.346;2023-03-08T05:50:32;17.85;;;9.10;;
77287;SDS011;66345;42.694;23.346;2023-03-08T05:52:58;20.10;;;9.55;;
77287;SDS011;66345;42.694;23.346;2023-03-08T05:55:24;21.40;;;9.27;;
77287;SDS011;66345;42.694;23.346;2023-03-08T05:57:49;22.57;;;9.93;;
77287;SDS011;66345;42.694;23.346;2023-03-08T06:00:15;22.23;;;9.20;;
77287;SDS011;66345;42.694;23.346;2023-03-08T06:02:41;18.95;;;8.73;;
77287;SDS011;66345;42.694;23.346;2023-03-08T06:05:07;16.80;;;9.00;;
77287;SDS011;66345;42.694;23.346;2023-03-08T06:07:33;25.98;;;9.60;;
77287;SDS011;66345;42.694;23.346;2023-03-08T06:09:58;22.08;;;10.55;;
77287;SDS011;66345;42.694;23.346;2023-03-08T06:12:23;23.00;;;10.33;;
77287;SDS011;66345;42.694;23.346;2023-03-08T06:14:49;21.33;;;10.33;;
77287;SDS011;66345;42.694;23.346;2023-03-08T06:17:14;23.37;;;10.97;;
77287;SDS011;66345;42.694;23.346;2023-03-08T06:19:40;27.63;;;11.20;;
77287;SDS011;66345;42.694;23.346;2023-03-08T06:22:05;25.00;;;11.40;;
77287;SDS011;66345;42.694;23.346;2023-03-08T06:24:31;30.27;;;11.40;;
77287;SDS011;66345;42.694;23.346;2023-03-08T06:26:56;26.63;;;11.47;;
77287;SDS011;66345;42.694;23.346;2023-03-08T06:29:22;25.80;;;12.23;;
77287;SDS011;66345;42.694;23.346;2023-03-08T06:31:47;29.17;;;14.43;;
77287;SDS011;66345;42.694;23.346;2023-03-08T06:34:12;29.83;;;15.47;;
77287;SDS011;66345;42.694;23.346;2023-03-08T06:36:38;31.17;;;16.57;;
77287;SDS011;66345;42.694;23.346;2023-03-08T06:39:03;40.03;;;19.57;;
77287;SDS011;66345;42.694;23.346;2023-03-08T06:41:31;35.30;;;17.73;;
77287;SDS011;66345;42.694;23.346;2023-03-08T06:43:56;34.55;;;17.63;;
77287;SDS011;66345;42.694;23.346;2023-03-08T06:46:22;35.80;;;17.67;;
77287;SDS011;66345;42.694;23.346;2023-03-08T06:48:48;33.20;;;18.30;;
77287;SDS011;66345;42.694;23.346;2023-03-08T06:51:14;28.25;;;13.80;;
77287;SDS011;66345;42.694;23.346;2023-03-08T06:53:40;36.65;;;18.92;;
77287;SDS011;66345;42.694;23.346;2023-03-08T06:56:06;35.45;;;18.95;;
77287;SDS011;66345;42.694;23.346;2023-03-08T06:58:33;40.93;;;19.23;;
77287;SDS011;66345;42.694;23.346;2023-03-08T07:01:02;24.25;;;12.65;;
77287;SDS011;66345;42.694;23.346;2023-03-08T07:03:32;15.77;;;7.43;;
77287;SDS011;66345;42.694;23.346;2023-03-08T07:05:58;12.93;;;6.15;;
77287;SDS011;66345;42.694;23.346;2023-03-08T07:08:24;17.33;;;6.75;;
77287;SDS011;66345;42.694;23.346;2023-03-08T07:10:50;15.17;;;7.37;;
77287;SDS011;66345;42.694;23.346;2023-03-08T07:13:15;15.23;;;7.13;;
77287;SDS011;66345;42.694;23.346;2023-03-08T07:15:41;13.48;;;7.53;;
77287;SDS011;66345;42.694;23.346;2023-03-08T07:18:07;11.27;;;5.20;;
77287;SDS011;66345;42.694;23.346;2023-03-08T07:20:33;13.77;;;5.97;;
77287;SDS011;66345;42.694;23.346;2023-03-08T07:22:59;13.10;;;5.75;;
77287;SDS011;66345;42.694;23.346;2023-03-08T07:25:26;9.57;;;5.80;;
77287;SDS011;66345;42.694;23.346;2023-03-08T07:27:52;11.77;;;6.30;;
77287;SDS011;66345;42.694;23.346;2023-03-08T07:30:17;10.70;;;6.03;;
77287;SDS011;66345;42.694;23.346;2023-03-08T07:32:43;10.90;;;5.70;;
77287;SDS011;66345;42.694;23.346;2023-03-08T07:35:09;11.43;;;5.95;;
77287;SDS011;66345;42.694;23.346;2023-03-08T07:37:36;11.73;;;6.00;;
77287;SDS011;66345;42.694;23.346;2023-03-08T07:40:02;15.50;;;7.00;;
77287;SDS011;66345;42.694;23.346;2023-03-08T07:42:29;10.13;;;5.88;;
77287;SDS011;66345;42.694;23.346;2023-03-08T07:44:55;11.10;;;6.45;;
77287;SDS011;66345;42.694;23.346;2023-03-08T07:47:20;12.95;;;6.00;;
77287;SDS011;66345;42.694;23.346;2023-03-08T07:49:46;10.77;;;5.80;;
77287;SDS011;66345;42.694;23.346;2023-03-08T07:52:11;10.07;;;5.20;;
77287;SDS011;66345;42.694;23.346;2023-03-08T07:54:37;12.68;;;6.30;;
77287;SDS011;66345;42.694;23.346;2023-03-08T07:57:03;11.33;;;5.80;;
77287;SDS011;66345;42.694;23.346;2023-03-08T07:59:29;11.45;;;5.65;;
77287;SDS011;66345;42.694;23.346;2023-03-08T08:01:55;7.93;;;3.87;;
77287;SDS011;66345;42.694;23.346;2023-03-08T08:04:20;10.27;;;4.50;;
77287;SDS011;66345;42.694;23.346;2023-03-08T08:06:47;11.98;;;5.10;;
77287;SDS011;66345;42.694;23.346;2023-03-08T08:09:13;12.05;;;5.32;;
77287;SDS011;66345;42.694;23.346;2023-03-08T08:11:40;13.73;;;5.72;;
77287;SDS011;66345;42.694;23.346;2023-03-08T08:14:06;13.93;;;5.77;;
77287;SDS011;66345;42.694;23.346;2023-03-08T08:16:33;12.98;;;5.45;;
77287;SDS011;66345;42.694;23.346;2023-03-08T08:18:58;10.65;;;4.75;;
77287;SDS011;66345;42.694;23.346;2023-03-08T08:21:24;13.27;;;5.17;;
77287;SDS011;66345;42.694;23.346;2023-03-08T08:23:49;12.00;;;5.97;;
77287;SDS011;66345;42.694;23.346;2023-03-08T08:26:16;9.23;;;5.03;;
77287;SDS011;66345;42.694;23.346;2023-03-08T08:28:45;10.52;;;5.20;;
77287;SDS011;66345;42.694;23.346;2023-03-08T08:31:16;15.10;;;5.47;;
77287;SDS011;66345;42.694;23.346;2023-03-08T08:33:43;13.25;;;5.60;;
77287;SDS011;66345;42.694;23.346;2023-03-08T08:36:16;13.03;;;5.93;;
77287;SDS011;66345;42.694;23.346;2023-03-08T08:38:43;14.35;;;6.15;;
77287;SDS011;66345;42.694;23.346;2023-03-08T08:41:10;18.77;;;6.30;;
77287;SDS011;66345;42.694;23.346;2023-03-08T08:43:36;10.43;;;6.07;;
77287;SDS011;66345;42.694;23.346;2023-03-08T08:46:02;10.70;;;6.20;;
77287;SDS011;66345;42.694;23.346;2023-03-08T08:48:29;12.53;;;6.57;;
77287;SDS011;66345;42.694;23.346;2023-03-08T08:50:57;14.48;;;7.05;;
77287;SDS011;66345;42.694;23.346;2023-03-08T08:53:22;12.23;;;6.80;;
77287;SDS011;66345;42.694;23.346;2023-03-08T08:55:48;14.47;;;6.57;;
77287;SDS011;66345;42.694;23.346;2023-03-08T08:58:13;14.27;;;6.33;;
77287;SDS011;66345;42.694;23.346;2023-03-08T09:00:39;11.38;;;6.63;;
77287;SDS011;66345;42.694;23.346;2023-03-08T09:03:05;13.07;;;6.18;;
77287;SDS011;66345;42.694;23.346;2023-03-08T09:05:31;12.27;;;6.33;;
77287;SDS011;66345;42.694;23.346;2023-03-08T09:07:59;14.50;;;6.63;;
77287;SDS011;66345;42.694;23.346;2023-03-08T09:10:29;11.32;;;5.85;;
77287;SDS011;66345;42.694;23.346;2023-03-08T09:12:56;13.25;;;6.38;;
77287;SDS011;66345;42.694;23.346;2023-03-08T09:15:22;13.45;;;6.32;;
77287;SDS011;66345;42.694;23.346;2023-03-08T09:17:49;13.60;;;6.53;;
77287;SDS011;66345;42.694;23.346;2023-03-08T09:20:15;14.23;;;6.20;;
77287;SDS011;66345;42.694;23.346;2023-03-08T09:22:40;14.38;;;6.15;;
77287;SDS011;66345;42.694;23.346;2023-03-08T09:25:06;14.60;;;6.80;;
77287;SDS011;66345;42.694;23.346;2023-03-08T09:27:33;12.85;;;6.35;;
77287;SDS011;66345;42.694;23.346;2023-03-08T09:29:59;15.40;;;6.53;;
77287;SDS011;66345;42.694;23.346;2023-03-08T09:32:24;12.00;;;6.33;;
77287;SDS011;66345;42.694;23.346;2023-03-08T09:34:51;13.55;;;6.22;;
77287;SDS011;66345;42.694;23.346;2023-03-08T09:37:17;14.77;;;6.45;;
77287;SDS011;66345;42.694;23.346;2023-03-08T09:39:43;11.95;;;6.07;;
77287;SDS011;66345;42.694;23.346;2023-03-08T09:42:17;11.85;;;5.55;;
77287;SDS011;66345;42.694;23.346;2023-03-08T09:47:40;12.20;;;6.00;;
77287;SDS011;66345;42.694;23.346;2023-03-08T09:55:22;13.32;;;6.28;;
77287;SDS011;66345;42.694;23.346;2023-03-08T09:57:54;11.63;;;6.05;;
77287;SDS011;66345;42.694;23.346;2023-03-08T10:00:25;14.00;;;6.55;;
77287;SDS011;66345;42.694;23.346;2023-03-08T10:08:18;13.95;;;6.00;;
77287;SDS011;66345;42.694;23.346;2023-03-08T10:10:52;10.50;;;5.32;;
77287;SDS011;66345;42.694;23.346;2023-03-08T10:13:40;12.02;;;5.53;;
77287;SDS011;66345;42.694;23.346;2023-03-08T10:22:02;11.05;;;5.38;;
77287;SDS011;66345;42.694;23.346;2023-03-08T10:24:36;11.10;;;6.45;;
77287;SDS011;66345;42.694;23.346;2023-03-08T10:27:21;13.90;;;5.90;;
77287;SDS011;66345;42.694;23.346;2023-03-08T10:29:55;11.38;;;5.57;;
77287;SDS011;66345;42.694;23.346;2023-03-08T10:32:23;8.93;;;5.23;;
77287;SDS011;66345;42.694;23.346;2023-03-08T10:34:51;11.15;;;5.28;;
77287;SDS011;66345;42.694;23.346;2023-03-08T10:37:28;13.15;;;5.28;;
77287;SDS011;66345;42.694;23.346;2023-03-08T10:39:55;10.18;;;5.55;;
77287;SDS011;66345;42.694;23.346;2023-03-08T10:42:24;10.75;;;5.32;;
77287;SDS011;66345;42.694;23.346;2023-03-08T10:47:28;10.77;;;5.53;;
77287;SDS011;66345;42.694;23.346;2023-03-08T10:52:40;12.10;;;5.97;;
77287;SDS011;66345;42.694;23.346;2023-03-08T10:55:10;14.27;;;6.03;;
77287;SDS011;66345;42.694;23.346;2023-03-08T10:57:40;10.48;;;5.20;;
77287;SDS011;66345;42.694;23.346;2023-03-08T11:03:19;11.13;;;5.40;;
77287;SDS011;66345;42.694;23.346;2023-03-08T11:08:28;10.57;;;5.17;;
77287;SDS011;66345;42.694;23.346;2023-03-08T11:10:59;11.90;;;5.57;;
77287;SDS011;66345;42.694;23.346;2023-03-08T11:13:46;13.95;;;5.10;;
77287;SDS011;66345;42.694;23.346;2023-03-08T11:27:15;11.48;;;3.22;;
77287;SDS011;66345;42.694;23.346;2023-03-08T11:35:23;6.60;;;2.40;;
77287;SDS011;66345;42.694;23.346;2023-03-08T11:40:28;10.48;;;2.90;;
77287;SDS011;66345;42.694;23.346;2023-03-08T11:43:19;7.00;;;2.20;;
77287;SDS011;66345;42.694;23.346;2023-03-08T11:46:23;5.45;;;1.98;;
77287;SDS011;66345;42.694;23.346;2023-03-08T11:57:34;4.38;;;1.90;;
77287;SDS011;66345;42.694;23.346;2023-03-08T12:00:10;6.72;;;1.70;;
77287;SDS011;66345;42.694;23.346;2023-03-08T12:02:47;4.97;;;1.80;;
77287;SDS011;66345;42.694;23.346;2023-03-08T12:13:14;4.03;;;1.17;;
77287;SDS011;66345;42.694;23.346;2023-03-08T12:18:52;4.43;;;1.20;;
77287;SDS011;66345;42.694;23.346;2023-03-08T12:24:12;5.15;;;1.50;;
77287;SDS011;66345;42.694;23.346;2023-03-08T12:26:43;8.85;;;4.50;;
77287;SDS011;66345;42.694;23.346;2023-03-08T12:29:33;3.80;;;1.60;;
77287;SDS011;66345;42.694;23.346;2023-03-08T12:32:08;4.38;;;1.13;;
77287;SDS011;66345;42.694;23.346;2023-03-08T12:34:36;5.07;;;1.33;;
77287;SDS011;66345;42.694;23.346;2023-03-08T12:39:52;4.53;;;1.20;;
77287;SDS011;66345;42.694;23.346;2023-03-08T12:42:36;4.05;;;1.23;;
77287;SDS011;66345;42.694;23.346;2023-03-08T12:47:59;5.57;;;1.95;;
77287;SDS011;66345;42.694;23.346;2023-03-08T12:53:20;4.55;;;1.30;;
77287;SDS011;66345;42.694;23.346;2023-03-08T12:58:46;4.15;;;1.40;;
77287;SDS011;66345;42.694;23.346;2023-03-08T13:01:34;4.68;;;1.33;;
77287;SDS011;66345;42.694;23.346;2023-03-08T13:04:03;5.10;;;1.48;;
77287;SDS011;66345;42.694;23.346;2023-03-08T13:11:49;4.82;;;1.60;;
77287;SDS011;66345;42.694;23.346;2023-03-08T13:14:38;4.82;;;1.40;;
77287;SDS011;66345;42.694;23.346;2023-03-08T13:19:53;3.80;;;1.00;;
77287;SDS011;66345;42.694;23.346;2023-03-08T13:22:29;5.07;;;1.02;;
77287;SDS011;66345;42.694;23.346;2023-03-08T13:25:16;3.78;;;1.10;;
77287;SDS011;66345;42.694;23.346;2023-03-08T13:27:57;5.65;;;1.30;;
77287;SDS011;66345;42.694;23.346;2023-03-08T13:30:31;7.55;;;1.40;;
77287;SDS011;66345;42.694;23.346;2023-03-08T13:33:03;3.35;;;1.27;;
77287;SDS011;66345;42.694;23.346;2023-03-08T13:35:32;5.13;;;1.83;;
77287;SDS011;66345;42.694;23.346;2023-03-08T13:37:58;4.25;;;1.50;;
77287;SDS011;66345;42.694;23.346;2023-03-08T13:40:25;3.13;;;0.90;;
77287;SDS011;66345;42.694;23.346;2023-03-08T13:42:59;4.22;;;1.20;;
77287;SDS011;66345;42.694;23.346;2023-03-08T13:45:27;4.50;;;0.90;;
77287;SDS011;66345;42.694;23.346;2023-03-08T13:47:53;8.27;;;3.15;;
77287;SDS011;66345;42.694;23.346;2023-03-08T13:52:59;3.33;;;1.30;;
77287;SDS011;66345;42.694;23.346;2023-03-08T13:55:48;5.90;;;1.83;;
77287;SDS011;66345;42.694;23.346;2023-03-08T13:58:26;3.28;;;1.10;;
77287;SDS011;66345;42.694;23.346;2023-03-08T14:03:49;5.00;;;1.20;;
77287;SDS011;66345;42.694;23.346;2023-03-08T14:08:48;4.55;;;1.50;;
77287;SDS011;66345;42.694;23.346;2023-03-08T14:11:19;5.00;;;1.83;;
77287;SDS011;66345;42.694;23.346;2023-03-08T14:13:51;5.40;;;1.60;;
77287;SDS011;66345;42.694;23.346;2023-03-08T14:16:29;5.20;;;1.42;;
77287;SDS011;66345;42.694;23.346;2023-03-08T14:21:48;5.82;;;1.48;;
77287;SDS011;66345;42.694;23.346;2023-03-08T14:24:26;5.28;;;1.40;;
77287;SDS011;66345;42.694;23.346;2023-03-08T14:27:04;4.35;;;1.15;;
77287;SDS011;66345;42.694;23.346;2023-03-08T14:29:31;3.22;;;1.30;;
77287;SDS011;66345;42.694;23.346;2023-03-08T14:32:02;4.47;;;1.30;;
77287;SDS011;66345;42.694;23.346;2023-03-08T14:39:35;5.82;;;1.52;;
77287;SDS011;66345;42.694;23.346;2023-03-08T14:42:19;8.15;;;3.13;;
77287;SDS011;66345;42.694;23.346;2023-03-08T14:47:31;5.05;;;1.50;;
77287;SDS011;66345;42.694;23.346;2023-03-08T14:52:34;6.03;;;2.70;;
77287;SDS011;66345;42.694;23.346;2023-03-08T14:57:53;4.30;;;1.50;;
77287;SDS011;66345;42.694;23.346;2023-03-08T15:00:21;4.43;;;0.90;;
77287;SDS011;66345;42.694;23.346;2023-03-08T15:02:47;3.50;;;1.35;;
77287;SDS011;66345;42.694;23.346;2023-03-08T15:05:13;5.77;;;1.20;;
77287;SDS011;66345;42.694;23.346;2023-03-08T15:07:41;9.52;;;1.50;;
77287;SDS011;66345;42.694;23.346;2023-03-08T15:10:14;3.55;;;1.25;;
77287;SDS011;66345;42.694;23.346;2023-03-08T15:12:43;3.53;;;1.10;;
77287;SDS011;66345;42.694;23.346;2023-03-08T15:15:10;3.60;;;1.23;;
77287;SDS011;66345;42.694;23.346;2023-03-08T15:17:37;6.72;;;1.38;;
77287;SDS011;66345;42.694;23.346;2023-03-08T15:20:02;3.07;;;1.10;;
77287;SDS011;66345;42.694;23.346;2023-03-08T15:22:30;5.22;;;1.10;;
77287;SDS011;66345;42.694;23.346;2023-03-08T15:24:57;5.43;;;1.63;;
77287;SDS011;66345;42.694;23.346;2023-03-08T15:27:23;4.17;;;1.50;;
77287;SDS011;66345;42.694;23.346;2023-03-08T15:29:48;4.97;;;1.67;;
77287;SDS011;66345;42.694;23.346;2023-03-08T15:32:14;4.13;;;1.47;;
77287;SDS011;66345;42.694;23.346;2023-03-08T15:34:39;6.23;;;1.60;;
77287;SDS011;66345;42.694;23.346;2023-03-08T15:37:05;3.72;;;1.30;;
77287;SDS011;66345;42.694;23.346;2023-03-08T15:39:32;3.72;;;1.45;;
77287;SDS011;66345;42.694;23.346;2023-03-08T15:41:57;3.47;;;1.10;;
77287;SDS011;66345;42.694;23.346;2023-03-08T15:44:24;3.75;;;1.20;;
77287;SDS011;66345;42.694;23.346;2023-03-08T15:46:49;4.43;;;1.60;;
77287;SDS011;66345;42.694;23.346;2023-03-08T15:49:15;3.03;;;1.30;;
77287;SDS011;66345;42.694;23.346;2023-03-08T15:51:40;5.10;;;1.60;;
77287;SDS011;66345;42.694;23.346;2023-03-08T15:54:06;5.57;;;1.45;;
77287;SDS011;66345;42.694;23.346;2023-03-08T15:56:32;3.73;;;1.60;;
77287;SDS011;66345;42.694;23.346;2023-03-08T15:58:57;5.60;;;1.70;;
77287;SDS011;66345;42.694;23.346;2023-03-08T16:01:23;4.70;;;1.77;;
77287;SDS011;66345;42.694;23.346;2023-03-08T16:03:51;6.05;;;1.52;;
77287;SDS011;66345;42.694;23.346;2023-03-08T16:06:18;4.68;;;1.48;;
77287;SDS011;66345;42.694;23.346;2023-03-08T16:08:43;4.93;;;1.60;;
77287;SDS011;66345;42.694;23.346;2023-03-08T16:11:10;4.33;;;1.50;;
77287;SDS011;66345;42.694;23.346;2023-03-08T16:13:37;5.03;;;1.50;;
77287;SDS011;66345;42.694;23.346;2023-03-08T16:16:03;3.92;;;1.40;;
77287;SDS011;66345;42.694;23.346;2023-03-08T16:18:32;8.83;;;1.43;;
77287;SDS011;66345;42.694;23.346;2023-03-08T16:20:59;5.22;;;1.70;;
77287;SDS011;66345;42.694;23.346;2023-03-08T16:23:25;5.65;;;1.50;;
77287;SDS011;66345;42.694;23.346;2023-03-08T16:28:36;4.53;;;1.73;;
77287;SDS011;66345;42.694;23.346;2023-03-08T16:31:02;11.10;;;4.97;;